Flight Track Log - Related Links

Times and Time Zones

All times are in EDT time to prevent confusion due to time zone crossing. See the ASQ6041 flight status page for this flight to view local times or setup timezone preferences in your user account.

Time Position Orientation Groundspeed Altitude Reporting Facility
EDT Latitude Longitude Course Direction KTS MPH feet Rate Location/Type
Mon 07:14:39 AM 33.5706 -86.7439 48° Northeast 157 181 1,300  Level Atlanta Center
Mon 07:15:39 AM 33.6069 -86.6953 48° Northeast 196 226 3,100 1,750 Climbing Atlanta Center
Mon 07:16:39 AM 33.6519 -86.6467 42° Northeast 199 229 4,800 1,800 Climbing Atlanta Center
Mon 07:17:39 AM 33.7011 -86.5906 44° Northeast 263 303 6,700 1,950 Climbing Atlanta Center
Mon 07:18:39 AM 33.7544 -86.5297 43° Northeast 269 310 8,700 1,800 Climbing Atlanta Center
Mon 07:19:39 AM 33.8119 -86.4664 42° Northeast 268 308 10,300 1,300 Climbing Atlanta Center
Mon 07:20:39 AM 33.8761 -86.3958 42° Northeast 286 329 11,300 900 Climbing Atlanta Center
Mon 07:21:39 AM 33.9486 -86.3125 44° Northeast 318 366 12,100 850 Climbing Atlanta Center
Mon 07:22:39 AM 34.0253 -86.2294 42° Northeast 346 398 13,000 1,000 Climbing Atlanta Center
Mon 07:23:39 AM 34.1019 -86.1411 44° Northeast 361 415 14,100 1,100 Climbing Atlanta Center
Mon 07:24:39 AM 34.1806 -86.0525 43° Northeast 372 428 15,200 1,100 Climbing Atlanta Center
Mon 07:25:39 AM 34.2594 -85.9589 44° Northeast 383 441 16,300 1,050 Climbing Atlanta Center
Mon 07:26:39 AM 34.3400 -85.8703 42° Northeast 383 441 17,300 950 Climbing Atlanta Center
Mon 07:27:39 AM 34.4206 -85.7789 43° Northeast 383 441 18,200 900 Climbing Atlanta Center
Mon 07:28:39 AM 34.5011 -85.6872 43° Northeast 383 441 19,100 950 Climbing Atlanta Center
Mon 07:29:39 AM 34.5839 -85.5903 44° Northeast 394 453 20,100 950 Climbing Atlanta Center
Mon 07:30:39 AM 34.6686 -85.4961 42° Northeast 399 459 21,000 900 Climbing Atlanta Center
Mon 07:31:39 AM 34.7531 -85.3964 44° Northeast 405 466 21,900 950 Climbing Atlanta Center
Mon 07:32:39 AM 34.8375 -85.2992 43° Northeast 405 466 22,900 1,050 Climbing Atlanta Center
Mon 07:33:39 AM 34.9219 -85.1989 44° Northeast 405 466 24,000 1,050 Climbing Atlanta Center
Mon 07:34:39 AM 35.0206 -85.1419 25° Northeast 399 459 25,000 1,000 Climbing Atlanta Center
Mon 07:35:39 AM 35.1272 -85.1131 12° North 381 438 26,000 1,000 Climbing Atlanta Center
Mon 07:36:39 AM 35.2339 -85.0864 12° North 381 438 27,000 1,000 Climbing Atlanta Center
Mon 07:37:39 AM 35.3386 -85.0597 12° North 381 438 28,000 950 Climbing Atlanta Center
Mon 07:38:39 AM 35.4200 -85.0403 11° North 376 433 28,900 900 Climbing Atlanta Center
Mon 07:39:39 AM 35.5350 -85.0111 12° North 376 433 29,800 900 Climbing Atlanta Center
Mon 07:40:39 AM 35.6375 -84.9842 12° North 376 433 30,700 950 Climbing Atlanta Center
Mon 07:41:39 AM 35.7400 -84.9572 12° North 376 433 31,700 1,050 Climbing Atlanta Center
Mon 07:42:39 AM 35.8506 -84.9278 12° North 376 433 32,800 690 Climbing Atlanta Center
Mon 07:44:59 AM 36.1111 -84.8614 12° North 396 456 34,000 358 Climbing Indianapolis Center
Mon 07:46:00 AM 36.2267 -84.8314 12° North 419 482 34,000  Level Indianapolis Center
Mon 07:47:02 AM 36.3464 -84.8000 12° North 437 503 34,000  Level Indianapolis Center
Mon 07:48:03 AM 36.4681 -84.7669 12° North 446 513 34,000  Level Indianapolis Center
Mon 07:49:05 AM 36.5917 -84.7303 13° North 452 520 34,000  Level Indianapolis Center
Mon 07:50:07 AM 36.7156 -84.6936 13° North 458 527 34,000  Level Indianapolis Center
Mon 07:51:08 AM 36.8383 -84.6747 North 456 525 34,000  Level Indianapolis Center
Mon 07:52:10 AM 36.9550 -84.6956 352° North 424 488 34,000  Level Indianapolis Center
Mon 07:53:11 AM 37.0856 -84.7181 352° North 422 486 34,000  Level Indianapolis Center
Mon 07:54:13 AM 37.2039 -84.7383 352° North 425 489 34,000  Level Indianapolis Center
Mon 07:55:14 AM 37.3206 -84.7594 352° North 424 488 34,000  Level Indianapolis Center
Mon 07:56:16 AM 37.4375 -84.7803 352° North 422 486 34,000  Level Indianapolis Center
Mon 07:57:17 AM 37.5533 -84.8028 351° North 421 484 34,000  Level Indianapolis Center
Mon 07:58:19 AM 37.6908 -84.8272 352° North 426 490 34,000  Level Indianapolis Center
Mon 07:59:20 AM 37.8089 -84.8475 352° North 427 491 34,000  Level Indianapolis Center
Mon 08:00:22 AM 37.9278 -84.8686 352° North 429 494 34,000  Level Indianapolis Center
Mon 08:01:24 AM 38.0450 -84.8911 351° North 428 493 34,000  Level Indianapolis Center
Mon 08:02:25 AM 38.1658 -84.9106 353° North 430 495 34,000  Level Indianapolis Center
Mon 08:03:27 AM 38.2850 -84.9322 352° North 431 496 34,000  Level Indianapolis Center
Mon 08:04:29 AM 38.4011 -84.9525 352° North 423 487 34,000  Level Indianapolis Center
Mon 08:05:30 AM 38.5383 -84.9794 351° North 425 489 34,000  Level Indianapolis Center
Mon 08:06:32 AM 38.6433 -84.9981 352° North 427 491 34,000  Level Indianapolis Center
Mon 08:07:34 AM 38.7569 -85.0183 352° North 413 475 34,000 -244 Level Indianapolis Center
Mon 08:08:35 AM 38.8692 -85.0400 351° North 409 471 33,500 -1,073 Descending Indianapolis Center
Mon 08:09:37 AM 39.0058 -85.0656 352° North 411 473 31,800 -1,306 Descending Indianapolis Center
Mon 08:10:39 AM 39.1131 -85.0853 352° North 391 450 30,800 -878 Descending Indianapolis Center
Mon 08:11:40 AM 39.2150 -85.1039 352° North 376 433 30,000 -780 Descending Indianapolis Center
Mon 08:12:42 AM 39.3169 -85.1231 352° North 368 423 29,200 -1,122 Descending Indianapolis Center
Mon 08:13:43 AM 39.4169 -85.1603 344° North 372 428 27,700 -1,512 Descending Indianapolis Center
Mon 08:14:45 AM 39.5128 -85.2061 340° North 365 420 26,100 -823 Descending Indianapolis Center
Mon 08:15:47 AM 39.5997 -85.2475 340° North 337 388 26,000 -49 Descending Indianapolis Center
Mon 08:16:48 AM 39.6886 -85.2900 340° North 335 386 26,000  Level Indianapolis Center
Mon 08:17:50 AM 39.7819 -85.3350 340° North 349 402 26,000  Level Indianapolis Center
Mon 08:18:51 AM 39.8842 -85.3847 340° North 381 438 26,000  Level Indianapolis Center
Mon 08:19:53 AM 39.9894 -85.4350 340° North 397 457 26,000  Level Indianapolis Center
Mon 08:20:55 AM 40.1161 -85.4964 340° North 409 471 26,000  Level Indianapolis Center
Mon 08:21:34 AM 40.1769 -85.5256 340° North 409 471 26,000  Level Chicago Center
Mon 08:22:36 AM 40.2831 -85.5758 340° North 408 470 26,000 -145 Level Chicago Center
Mon 08:23:38 AM 40.3878 -85.6272 340° North 403 464 25,700 -683 Descending Chicago Center
Mon 08:24:39 AM 40.4919 -85.6775 340° North 399 459 24,600 -1,122 Descending Chicago Center
Mon 08:25:41 AM 40.6236 -85.7289 344° North 410 472 23,400 -1,065 Descending Chicago Center
Mon 08:26:43 AM 40.7314 -85.7711 343° North 405 466 22,400 -1,016 Descending Chicago Center
Mon 08:27:45 AM 40.8397 -85.8131 344° North 403 464 21,300 -1,065 Descending Chicago Center
Mon 08:28:47 AM 40.9422 -85.8539 343° North 387 445 20,200 -629 Descending Chicago Center
Mon 08:29:49 AM 41.0183 -85.9283 324° Northwest 348 400 20,000 -97 Descending Chicago Center
Mon 08:30:51 AM 41.0431 -86.0467 286° West 338 389 20,000 -339 Level Chicago Center
Mon 08:31:53 AM 41.0611 -86.1739 281° West 349 402 19,300 -927 Descending Chicago Center
Mon 08:32:54 AM 41.0839 -86.3306 281° West 359 413 18,100 -1,122 Descending Chicago Center
Mon 08:33:56 AM 41.1014 -86.4586 280° West 353 406 17,000 -1,258 Descending Chicago Center
Mon 08:34:58 AM 41.1197 -86.5825 281° West 345 397 15,500 -1,452 Descending Chicago Center
Mon 08:36:00 AM 41.1578 -86.6992 293° West 350 403 14,000 -1,452 Descending Chicago Center
Mon 08:37:02 AM 41.2072 -86.8169 299° West 348 400 12,500 -1,355 Descending Chicago Center
Mon 08:38:04 AM 41.2553 -86.9317 299° West 357 411 11,200 -677 Descending Chicago Center
Mon 08:39:06 AM 41.3011 -87.0436 299° West 350 403 11,100 -97 Descending Chicago Center
Mon 08:40:08 AM 41.3472 -87.1547 299° West 346 398 11,000  Descending Chicago Center
Mon 08:40:53 AM 41.4167 -87.2500 314° West 350 403 11,100  Climbing Chicago TRACON
Mon 08:43:13 AM 41.5700 -87.4333 318° Northwest 347 399 11,000 -30 Descending Chicago Center
Mon 08:44:15 AM 41.6425 -87.5119 321° Northwest 340 391 11,000  Level Chicago Center
Mon 08:45:17 AM 41.7147 -87.5950 319° Northwest 346 398 11,000  Level Chicago Center
Mon 08:45:53 AM 41.7833 -87.6667 322° Northwest 353 406 11,000 -186 Level Chicago TRACON
Mon 08:46:54 AM 41.8333 -87.7500 309° West 323 372 10,700 -694 Descending Chicago TRACON
Mon 08:47:54 AM 41.8833 -87.8333 309° West 273 314 9,600 -1,050 Descending Chicago TRACON
Mon 08:48:54 AM 41.9333 -87.9167 309° West 283 326 8,600 -1,000 Descending Chicago TRACON
Mon 08:49:48 AM 41.9667 -88.0000 298° West 281 323 7,700 -842 Descending Chicago TRACON
Mon 08:50:48 AM 42.0000 -88.0667 304° West 226 260 7,000 -800 Descending Chicago TRACON
Mon 08:51:48 AM 42.0500 -88.1167 323° Northwest 233 268 6,100 -941 Descending Chicago TRACON
Mon 08:52:30 AM 42.0825 -88.1550 319° Northwest 232 267 5,400 -865 Descending Chicago Center
Mon 08:53:32 AM 42.1319 -88.1975 327° Northwest 226 260 4,600 -634 Descending Chicago Center
Mon 08:54:33 AM 42.1586 -88.1319 61° Northeast 225 259 4,100 -293 Descending Chicago Center
Mon 08:55:35 AM 42.1225 -88.0839 135° Southeast 191 220 4,000 -581 Descending Chicago Center
Mon 08:56:37 AM 42.0758 -88.0306 140° Southeast 184 212 2,900 -945 Descending Chicago Center
Mon 08:57:42 AM 42.0333 -87.9833 140° Southeast 144 166 2,000 -768 Descending Chicago TRACON
Mon 08:58:42 AM 42.0167 -87.9667 143° Southeast 127 146 1,300 -700 Descending Chicago TRACON
Mon 09:00:00 AM 41.9817 -87.9067 125° Southeast  Level Estimated
Mon 09:07:00 AM 41.9817 -87.9067 125° Southeast  Level Estimated

Login

Don't have an account? Register now (free) for customized features, flight alerts, and more!